Allie B — WDD3857 — position and weather

sailwx.info

Track history (hours):
 
Tides and Currents Weather Stations Pressure Air Temp Water Temp Dewpoint Dewpoint Depression Visibility Wind Speed Wind Dir Waves Ship Positions

Allie B

Owner: Dann, Stephen, Tampa, FL. More information available from US FCC via Universal Licensing System and Coast Guard Vessel Documentation Center.

Last reported at 2017-Dec-23 13:31 UTC. Time now 2018-Jan-23 12:00 UTC.
Position N 32°50' W 079°56'.
Warning: this ship's position is 30 days out of date.

Length 35 m; draft 4 m.

Type: Tow > 200 m length. MMSI: 367137180.

Date/timePositionNaut miles runAvg speedWind from/ knotsBaromVisibWave heightAir tempDewpointWater temp
2017-Dec-23 13:31N 32°50' W 079°56'0 0.0
2017-Dec-23 13:30N 32°50' W 079°56'0 0.0
2017-Dec-23 12:58N 32°50' W 079°56'0 0.0
2017-Dec-23 11:33N 32°50' W 079°56'0 0.0
2017-Dec-23 11:29N 32°50' W 079°56'10 2.3
2017-Dec-23 07:17N 32°43' W 079°48'5 6.9
2017-Dec-23 06:36N 32°46' W 079°52'1 4.1
2017-Dec-23 06:23N 32°46' W 079°53'3 6.6
2017-Dec-23 06:00N 32°48' W 079°55'  
2017-Dec-19 14:26N 32°41' W 079°45'4 8.5
2017-Dec-19 14:00N 32°38' W 079°45'2 4.8
2017-Dec-19 13:30N 32°40' W 079°44'3 6.7
2017-Dec-19 12:59N 32°43' W 079°47'3 6.7
2017-Dec-19 12:30N 32°44' W 079°51'4 5.2
2017-Dec-19 11:48N 32°46' W 079°55'1 3.6
2017-Dec-19 11:30N 32°47' W 079°55'2 4.2
2017-Dec-19 11:00N 32°49' W 079°55'2 3.9
2017-Dec-19 10:30N 32°50' W 079°56'0 0.3
2017-Dec-19 10:00N 32°50' W 079°56'0 0.1
2017-Dec-19 09:30N 32°50' W 079°56'0 0.3
2017-Dec-19 09:00N 32°50' W 079°56'0 0.3
2017-Dec-19 08:26N 32°50' W 079°56'0 0.5
2017-Dec-19 07:59N 32°50' W 079°56'0 0.3
2017-Dec-19 07:30N 32°50' W 079°56'0 0.2
2017-Dec-19 05:31N 32°50' W 079°56'0 1.9
2017-Dec-19 05:29N 32°50' W 079°56'2 0.7
2017-Dec-19 02:50N 32°48' W 079°55'2 4.3
2017-Dec-19 02:26N 32°47' W 079°54'  
Track history (hours):
 
Tides and Currents Weather Stations Pressure Air Temp Water Temp Dewpoint Dewpoint Depression Visibility Wind Speed Wind Dir Waves Ship Positions

Allie B

Owner: Dann, Stephen, Tampa, FL. More information available from US FCC via Universal Licensing System and Coast Guard Vessel Documentation Center.

Last reported at 2017-Dec-23 13:31 UTC. Time now 2018-Jan-23 12:00 UTC.
Position N 32°50' W 079°56'.
Warning: this ship's position is 30 days out of date.

Length 35 m; draft 4 m.

Type: Tow > 200 m length. MMSI: 367137180.

Date/timePositionNaut miles runAvg speedWind from/ knotsBaromVisibWave heightAir tempDewpointWater temp
2017-Dec-23 13:31N 32°50' W 079°56'0 0.0
2017-Dec-23 13:30N 32°50' W 079°56'0 0.0
2017-Dec-23 12:58N 32°50' W 079°56'0 0.0
2017-Dec-23 11:33N 32°50' W 079°56'0 0.0
2017-Dec-23 11:29N 32°50' W 079°56'10 2.3
2017-Dec-23 07:17N 32°43' W 079°48'5 6.9
2017-Dec-23 06:36N 32°46' W 079°52'1 4.1
2017-Dec-23 06:23N 32°46' W 079°53'3 6.6
2017-Dec-23 06:00N 32°48' W 079°55'  
2017-Dec-19 14:26N 32°41' W 079°45'4 8.5
2017-Dec-19 14:00N 32°38' W 079°45'2 4.8
2017-Dec-19 13:30N 32°40' W 079°44'3 6.7
2017-Dec-19 12:59N 32°43' W 079°47'3 6.7
2017-Dec-19 12:30N 32°44' W 079°51'4 5.2
2017-Dec-19 11:48N 32°46' W 079°55'1 3.6
2017-Dec-19 11:30N 32°47' W 079°55'2 4.2
2017-Dec-19 11:00N 32°49' W 079°55'2 3.9
2017-Dec-19 10:30N 32°50' W 079°56'0 0.3
2017-Dec-19 10:00N 32°50' W 079°56'0 0.1
2017-Dec-19 09:30N 32°50' W 079°56'0 0.3
2017-Dec-19 09:00N 32°50' W 079°56'0 0.3
2017-Dec-19 08:26N 32°50' W 079°56'0 0.5
2017-Dec-19 07:59N 32°50' W 079°56'0 0.3
2017-Dec-19 07:30N 32°50' W 079°56'0 0.2
2017-Dec-19 05:31N 32°50' W 079°56'0 1.9
2017-Dec-19 05:29N 32°50' W 079°56'2 0.7
2017-Dec-19 02:50N 32°48' W 079°55'2 4.3
2017-Dec-19 02:26N 32°47' W 079°54'  

Dump ship's entire track history